createdAt,value
2018-02-19T00:00:27.161Z,0.80
2018-02-19T00:02:54.804Z,0.70
2018-02-19T00:05:22.458Z,0.60
2018-02-19T00:07:50.072Z,0.70
2018-02-19T00:10:18.789Z,1.00
2018-02-19T00:12:46.465Z,0.70
2018-02-19T00:15:14.085Z,0.70
2018-02-19T00:17:42.143Z,1.00
2018-02-19T00:20:09.757Z,0.80
2018-02-19T00:22:37.375Z,0.80
2018-02-19T00:25:05.029Z,0.80
2018-02-19T00:27:32.738Z,0.60
2018-02-19T00:30:00.399Z,0.60
2018-02-19T00:32:28.058Z,0.80
2018-02-19T00:34:55.677Z,0.60
2018-02-19T00:37:23.345Z,0.60
2018-02-19T00:39:50.998Z,0.50
2018-02-19T00:42:18.618Z,0.70
2018-02-19T00:44:46.274Z,0.50
2018-02-19T00:47:13.890Z,0.70
2018-02-19T00:49:41.546Z,0.40
2018-02-19T00:52:09.198Z,0.60
2018-02-19T00:54:36.819Z,0.50
2018-02-19T00:57:04.501Z,0.80
2018-02-19T00:59:32.749Z,0.60
2018-02-19T01:02:00.496Z,0.60
2018-02-19T01:04:28.154Z,0.50
2018-02-19T01:06:55.773Z,0.70
2018-02-19T01:09:23.425Z,0.80
2018-02-19T01:11:51.040Z,0.60
2018-02-19T01:14:18.705Z,0.50
2018-02-19T01:16:46.320Z,0.40
2018-02-19T01:19:13.998Z,0.50
2018-02-19T01:21:42.258Z,0.80
2018-02-19T01:24:09.868Z,0.60
2018-02-19T01:26:38.994Z,0.60
2018-02-19T01:29:06.610Z,0.50
2018-02-19T01:31:34.493Z,1.00
2018-02-19T01:34:02.113Z,0.80
2018-02-19T01:36:29.877Z,0.70
2018-02-19T01:38:57.546Z,0.60
2018-02-19T01:41:25.157Z,0.80
2018-02-19T01:43:53.375Z,0.80
2018-02-19T01:46:21.034Z,0.80
2018-02-19T01:48:48.693Z,0.80
2018-02-19T01:51:16.349Z,0.70
2018-02-19T01:53:43.976Z,1.00
2018-02-19T01:56:11.629Z,0.80
2018-02-19T01:58:39.385Z,0.80
2018-02-19T02:01:07.768Z,1.00
2018-02-19T02:03:36.183Z,0.80
2018-02-19T02:06:03.802Z,0.70
2018-02-19T02:08:32.398Z,1.00
2018-02-19T02:11:00.015Z,0.80
2018-02-19T02:13:27.862Z,0.80
2018-02-19T02:15:55.514Z,0.80
2018-02-19T02:18:23.161Z,0.80
2018-02-19T02:20:50.814Z,0.80
2018-02-19T02:23:18.469Z,0.80
2018-02-19T02:25:46.358Z,0.80
2018-02-19T02:28:14.018Z,0.90
2018-02-19T02:30:41.681Z,1.00
2018-02-19T02:33:09.295Z,0.60
2018-02-19T02:35:37.718Z,1.00
2018-02-19T02:38:05.958Z,0.80
2018-02-19T02:40:33.583Z,0.80
2018-02-19T02:43:02.332Z,1.00
2018-02-19T02:45:29.986Z,1.20
2018-02-19T02:47:57.608Z,1.30
2018-02-19T02:50:26.037Z,1.00
2018-02-19T02:52:53.658Z,0.90
2018-02-19T02:55:21.302Z,1.00
2018-02-19T02:57:49.729Z,0.90
2018-02-19T03:00:17.496Z,1.30
2018-02-19T03:02:45.115Z,1.10
2018-02-19T03:05:12.774Z,1.20
2018-02-19T03:07:40.429Z,1.20
2018-02-19T03:10:09.074Z,1.30
2018-02-19T03:12:36.934Z,1.10
2018-02-19T03:15:04.692Z,1.20
2018-02-19T03:17:32.344Z,1.30
2018-02-19T03:19:59.953Z,1.00
2018-02-19T03:22:27.625Z,0.80
2018-02-19T03:24:56.265Z,0.70
2018-02-19T03:27:23.878Z,1.10
2018-02-19T03:29:51.526Z,1.00
2018-02-19T03:32:19.908Z,0.90
2018-02-19T03:34:47.568Z,0.80
2018-02-19T03:37:15.177Z,0.80
2018-02-19T03:39:42.840Z,0.80
2018-02-19T03:42:10.452Z,0.80
2018-02-19T03:44:38.108Z,0.80
2018-02-19T03:47:06.262Z,1.00
2018-02-19T03:49:35.582Z,1.10
2018-02-19T03:52:03.243Z,0.70
2018-02-19T03:54:30.897Z,0.70
2018-02-19T03:56:58.717Z,0.70
2018-02-19T03:59:26.342Z,0.90
2018-02-19T04:01:53.993Z,1.00
2018-02-19T04:04:21.702Z,0.70
2018-02-19T04:06:49.356Z,0.80
2018-02-19T04:09:17.020Z,0.80
2018-02-19T04:11:44.673Z,0.80
2018-02-19T04:14:13.050Z,0.80
2018-02-19T04:16:41.270Z,0.80
2018-02-19T04:19:08.890Z,0.80
2018-02-19T04:21:36.541Z,1.00
2018-02-19T04:24:04.420Z,1.10
2018-02-19T04:26:32.042Z,1.00
2018-02-19T04:28:59.666Z,0.70
2018-02-19T04:31:28.089Z,1.00
2018-02-19T04:33:55.707Z,1.00
2018-02-19T04:36:23.365Z,0.70
2018-02-19T04:38:51.022Z,1.00
2018-02-19T04:41:19.404Z,0.90
2018-02-19T04:43:48.586Z,0.80
2018-02-19T04:46:21.894Z,0.70
2018-02-19T04:48:50.356Z,1.00
2018-02-19T04:51:18.001Z,0.70
2018-02-19T04:53:45.663Z,0.80
2018-02-19T04:56:13.312Z,0.80
2018-02-19T04:58:41.170Z,0.90
2018-02-19T05:01:08.826Z,1.00
2018-02-19T05:03:37.085Z,0.70
2018-02-19T05:06:04.767Z,0.90
2018-02-19T05:08:32.632Z,1.00
2018-02-19T05:11:00.303Z,0.70
2018-02-19T05:13:27.921Z,0.90
2018-02-19T05:15:55.730Z,1.00
2018-02-19T05:18:23.494Z,1.00
2018-02-19T05:20:51.164Z,0.70
2018-02-19T05:23:19.393Z,0.90
2018-02-19T05:25:47.092Z,1.10
2018-02-19T05:28:16.538Z,0.90
2018-02-19T05:30:44.403Z,0.90
2018-02-19T05:33:13.277Z,0.90
2018-02-19T05:35:41.002Z,1.00
2018-02-19T05:38:08.711Z,0.80
2018-02-19T05:40:36.428Z,0.80
2018-02-19T05:43:04.394Z,0.70
2018-02-19T05:45:32.477Z,0.70
2018-02-19T05:48:00.548Z,0.70
2018-02-19T05:50:28.393Z,1.00
2018-02-19T05:52:56.047Z,1.10
2018-02-19T05:55:24.270Z,0.80
2018-02-19T05:57:52.873Z,0.80
2018-02-19T06:00:21.390Z,1.00
2018-02-19T06:02:49.665Z,0.90
2018-02-19T06:05:17.290Z,0.90
2018-02-19T06:07:45.577Z,1.00
2018-02-19T06:10:13.192Z,0.80
2018-02-19T06:12:40.817Z,0.80
2018-02-19T06:15:08.835Z,0.80
2018-02-19T06:17:37.217Z,1.10
2018-02-19T06:20:05.671Z,0.80
2018-02-19T06:22:33.296Z,1.00
2018-02-19T06:25:00.953Z,0.80
2018-02-19T06:27:28.578Z,0.80
2018-02-19T06:29:56.236Z,0.80
2018-02-19T06:32:23.906Z,0.80
2018-02-19T06:34:51.557Z,0.80
2018-02-19T06:37:19.174Z,0.80
2018-02-19T06:39:46.866Z,0.70
2018-02-19T06:42:14.485Z,1.00
2018-02-19T06:44:42.369Z,1.00
2018-02-19T06:47:10.026Z,0.70
2018-02-19T06:49:37.783Z,1.00
2018-02-19T06:52:05.415Z,1.10
2018-02-19T06:54:33.073Z,0.90
2018-02-19T06:57:00.695Z,1.00
2018-02-19T06:59:28.530Z,0.70
2018-02-19T07:01:56.294Z,1.10
2018-02-19T07:04:23.908Z,0.90
2018-02-19T07:06:51.587Z,1.20
2018-02-19T07:09:19.213Z,1.20
2018-02-19T07:11:47.321Z,1.20
2018-02-19T07:14:14.978Z,1.10
2018-02-19T07:16:42.598Z,1.10
2018-02-19T07:19:11.034Z,1.20
2018-02-19T07:21:38.656Z,1.00
2018-02-19T07:24:06.461Z,1.30
2018-02-19T07:26:34.115Z,1.10
2018-02-19T07:29:04.866Z,1.30
2018-02-19T07:31:33.265Z,1.40
2018-02-19T07:34:00.921Z,1.20
2018-02-19T07:36:29.356Z,1.60
2018-02-19T07:38:57.034Z,1.30
2018-02-19T07:41:24.802Z,1.30
2018-02-19T07:43:52.420Z,1.30
2018-02-19T07:46:20.099Z,1.90
2018-02-19T07:48:48.329Z,1.80
2018-02-19T07:51:16.153Z,1.60
2018-02-19T07:53:44.407Z,1.60
2018-02-19T07:56:12.085Z,1.60
2018-02-19T07:58:40.498Z,1.60
2018-02-19T08:01:08.118Z,1.70
2018-02-19T08:03:35.793Z,1.60
2018-02-19T08:06:03.469Z,1.60
2018-02-19T08:08:31.109Z,1.60
2018-02-19T08:10:58.786Z,1.60
2018-02-19T08:13:26.628Z,1.60
2018-02-19T08:15:54.393Z,1.60
2018-02-19T08:18:22.048Z,1.60
2018-02-19T08:20:49.723Z,1.60
2018-02-19T08:23:18.078Z,1.90
2018-02-19T08:25:45.754Z,2.10
2018-02-19T08:28:13.632Z,1.90
2018-02-19T08:30:42.057Z,2.10
2018-02-19T08:33:09.678Z,2.40
2018-02-19T08:35:38.106Z,2.20
2018-02-19T08:38:05.765Z,2.60
2018-02-19T08:40:33.386Z,2.40
2018-02-19T08:43:01.042Z,2.80
2018-02-19T08:45:29.458Z,2.90
2018-02-19T08:47:57.245Z,3.00
2018-02-19T08:50:24.879Z,2.90
2018-02-19T08:52:52.580Z,3.10
2018-02-19T08:55:20.237Z,3.40
2018-02-19T08:57:47.897Z,3.30
2018-02-19T09:00:15.516Z,3.10
2018-02-19T09:02:43.138Z,3.40
2018-02-19T09:05:10.801Z,3.40
2018-02-19T09:07:38.639Z,3.40
2018-02-19T09:10:06.295Z,3.10
2018-02-19T09:12:33.963Z,3.40
2018-02-19T09:15:01.631Z,3.30
2018-02-19T09:17:29.249Z,3.20
2018-02-19T09:19:56.877Z,3.70
2018-02-19T09:22:25.302Z,3.60
2018-02-19T09:24:52.928Z,3.50
2018-02-19T09:27:20.585Z,3.60
2018-02-19T09:29:48.210Z,3.80
2018-02-19T09:32:15.866Z,3.80
2018-02-19T09:34:44.085Z,4.10
2018-02-19T09:37:11.755Z,4.00
2018-02-19T09:39:39.405Z,4.00
2018-02-19T09:42:07.030Z,4.30
2018-02-19T09:44:35.002Z,4.30
2018-02-19T09:47:02.617Z,4.40
2018-02-19T09:49:30.278Z,4.30
2018-02-19T09:51:57.951Z,4.40
2018-02-19T09:54:25.568Z,4.30
2018-02-19T09:56:53.189Z,4.40
2018-02-19T09:59:21.736Z,4.30
2018-02-19T10:01:50.042Z,4.20
2018-02-19T10:04:18.424Z,4.60
2018-02-19T10:06:46.043Z,4.50
2018-02-19T10:09:14.182Z,4.60
2018-02-19T10:11:41.806Z,4.50
2018-02-19T10:14:09.427Z,4.60
2018-02-19T10:16:37.102Z,4.60
2018-02-19T10:19:04.757Z,4.90
2018-02-19T10:21:32.380Z,5.00
2018-02-19T10:23:59.998Z,5.00
2018-02-19T10:26:27.654Z,4.90
2018-02-19T10:28:55.437Z,5.20
2018-02-19T10:31:23.097Z,4.90
2018-02-19T10:33:50.735Z,5.00
2018-02-19T10:36:18.382Z,4.90
2018-02-19T10:38:46.059Z,4.90
2018-02-19T10:41:13.677Z,4.90
2018-02-19T10:43:42.057Z,5.10
2018-02-19T10:46:09.721Z,5.20
2018-02-19T10:48:37.343Z,5.40
2018-02-19T10:51:04.959Z,5.20
2018-02-19T10:53:32.630Z,5.30
2018-02-19T10:56:00.513Z,5.30
2018-02-19T10:58:28.144Z,5.20
2018-02-19T11:00:55.817Z,4.90
2018-02-19T11:03:23.493Z,5.30
2018-02-19T11:05:51.169Z,5.20
2018-02-19T11:08:18.833Z,5.30
2018-02-19T11:10:46.499Z,5.30
2018-02-19T11:13:14.892Z,5.30
2018-02-19T11:15:43.317Z,5.60
2018-02-19T11:18:10.997Z,5.80
2018-02-19T11:20:38.653Z,5.90
2018-02-19T11:23:06.274Z,5.60
2018-02-19T11:25:33.933Z,5.60
2018-02-19T11:28:01.585Z,5.70
2018-02-19T11:30:29.274Z,5.60
2018-02-19T11:32:56.888Z,5.80
2018-02-19T11:35:24.805Z,5.90
2018-02-19T11:37:52.421Z,5.60
2018-02-19T11:40:20.852Z,6.10
2018-02-19T11:42:48.470Z,6.00
2018-02-19T11:45:16.089Z,5.70
2018-02-19T11:47:43.741Z,6.20
2018-02-19T11:50:12.097Z,5.70
2018-02-19T11:52:39.791Z,6.20
2018-02-19T11:55:07.410Z,5.60
2018-02-19T11:57:35.066Z,6.20
2018-02-19T12:00:02.923Z,6.20
2018-02-19T12:02:30.722Z,5.90
2018-02-19T12:04:58.341Z,5.90
2018-02-19T12:07:27.005Z,6.20
2018-02-19T12:09:54.715Z,6.10
2018-02-19T12:12:22.430Z,6.00
2018-02-19T12:14:50.810Z,6.50
2018-02-19T12:17:18.426Z,6.60
2018-02-19T12:19:46.083Z,6.60
2018-02-19T12:22:13.741Z,6.70
2018-02-19T12:24:41.398Z,6.60
2018-02-19T12:27:09.021Z,6.40
2018-02-19T12:29:36.673Z,6.30
2018-02-19T12:32:04.806Z,6.70
2018-02-19T12:34:32.871Z,7.00
2018-02-19T12:37:00.718Z,7.00
2018-02-19T12:39:28.345Z,6.90
2018-02-19T12:41:56.693Z,6.80
2018-02-19T12:44:24.330Z,6.80
2018-02-19T12:46:51.982Z,6.90
2018-02-19T12:49:19.602Z,7.00
2018-02-19T12:51:48.002Z,6.40
2018-02-19T12:54:15.910Z,6.60
2018-02-19T12:56:43.530Z,6.50
2018-02-19T12:59:11.188Z,6.60
2018-02-19T13:01:38.904Z,6.50
2018-02-19T13:04:07.280Z,6.90
2018-02-19T13:06:36.406Z,7.00
2018-02-19T13:09:04.093Z,6.80
2018-02-19T13:11:31.762Z,7.00
2018-02-19T13:13:59.375Z,6.90
2018-02-19T13:16:26.993Z,6.90
2018-02-19T13:18:54.836Z,7.00
2018-02-19T13:21:22.513Z,6.80
2018-02-19T13:23:50.170Z,7.20
2018-02-19T13:26:18.041Z,7.20
2018-02-19T13:28:45.878Z,7.30
2018-02-19T13:31:13.497Z,7.30
2018-02-19T13:33:41.142Z,7.20
2018-02-19T13:36:09.567Z,7.30
2018-02-19T13:38:37.221Z,7.20
2018-02-19T13:41:04.872Z,7.20
2018-02-19T13:43:35.400Z,7.30
2018-02-19T13:46:03.214Z,7.20
2018-02-19T13:48:31.105Z,7.10
2018-02-19T13:50:58.944Z,7.20
2018-02-19T13:53:26.557Z,7.20
2018-02-19T13:55:54.173Z,7.30
2018-02-19T13:58:21.825Z,7.20
2018-02-19T14:00:49.477Z,7.40
2018-02-19T14:03:17.130Z,7.20
2018-02-19T14:05:44.747Z,7.30
2018-02-19T14:08:13.166Z,7.20
2018-02-19T14:10:41.577Z,7.10
2018-02-19T14:13:09.305Z,6.90
2018-02-19T14:15:37.207Z,6.90
2018-02-19T14:18:04.831Z,6.90
2018-02-19T14:20:32.454Z,7.00
2018-02-19T14:23:00.105Z,6.90
2018-02-19T14:25:27.765Z,6.90
2018-02-19T14:27:56.193Z,6.80
2018-02-19T14:30:23.816Z,6.70
2018-02-19T14:32:51.466Z,6.80
2018-02-19T14:35:19.084Z,6.90
2018-02-19T14:37:46.743Z,6.80
2018-02-19T14:40:16.565Z,6.70
2018-02-19T14:42:44.949Z,6.90
2018-02-19T14:45:13.374Z,6.70
2018-02-19T14:47:40.993Z,6.70
2018-02-19T14:50:09.442Z,6.90
2018-02-19T14:52:37.777Z,6.80
2018-02-19T14:55:05.431Z,6.90
2018-02-19T14:57:33.084Z,6.70
2018-02-19T15:00:00.795Z,6.40
2018-02-19T15:02:29.050Z,6.60
2018-02-19T15:04:56.665Z,6.40
2018-02-19T15:07:24.317Z,6.60
2018-02-19T15:09:52.862Z,6.40
2018-02-19T15:12:20.530Z,6.50
2018-02-19T15:14:48.151Z,6.60
2018-02-19T15:17:16.457Z,6.60
2018-02-19T15:19:44.118Z,6.30
2018-02-19T15:22:11.738Z,6.50
2018-02-19T15:24:39.389Z,6.60
2018-02-19T15:27:07.000Z,6.60
2018-02-19T15:29:34.777Z,6.30
2018-02-19T15:32:02.629Z,6.30
2018-02-19T15:34:30.293Z,6.20
2018-02-19T15:36:57.906Z,6.00
2018-02-19T15:39:25.525Z,5.70
2018-02-19T15:41:53.506Z,5.60
2018-02-19T15:44:22.621Z,5.70
2018-02-19T15:46:51.048Z,5.50
2018-02-19T15:49:18.662Z,5.70
2018-02-19T15:51:46.285Z,5.30
2018-02-19T15:54:13.989Z,5.20
2018-02-19T15:56:42.373Z,5.50
2018-02-19T15:59:10.033Z,5.30
2018-02-19T16:01:37.652Z,5.00
2018-02-19T16:04:06.079Z,4.90
2018-02-19T16:06:33.693Z,5.30
2018-02-19T16:09:01.540Z,5.00
2018-02-19T16:11:29.412Z,5.00
2018-02-19T16:13:57.030Z,4.90
2018-02-19T16:16:24.685Z,4.70
2018-02-19T16:18:52.304Z,4.70
2018-02-19T16:21:19.931Z,4.90
2018-02-19T16:23:47.591Z,4.70
2018-02-19T16:26:15.206Z,4.60
2018-02-19T16:28:43.638Z,4.30
2018-02-19T16:31:11.293Z,4.60
2018-02-19T16:33:38.955Z,4.30
2018-02-19T16:36:06.616Z,4.40
2018-02-19T16:38:34.939Z,4.30
2018-02-19T16:41:03.320Z,4.30
2018-02-19T16:43:31.749Z,4.00
2018-02-19T16:45:59.369Z,3.90
2018-02-19T16:48:27.022Z,4.10
2018-02-19T16:50:55.448Z,4.00
2018-02-19T16:53:23.102Z,3.90
2018-02-19T16:55:51.167Z,4.10
2018-02-19T16:58:18.853Z,3.70
2018-02-19T17:00:46.473Z,3.70
2018-02-19T17:03:14.374Z,3.70
2018-02-19T17:05:42.032Z,3.90
2018-02-19T17:08:09.902Z,3.90
2018-02-19T17:10:37.561Z,3.80
2018-02-19T17:13:05.182Z,3.70
2018-02-19T17:15:32.797Z,3.70
2018-02-19T17:18:00.453Z,3.70
2018-02-19T17:20:29.022Z,3.70
2018-02-19T17:22:57.385Z,3.50
2018-02-19T17:25:24.997Z,3.80
2018-02-19T17:27:52.650Z,3.70
2018-02-19T17:30:20.779Z,3.70
2018-02-19T17:32:49.093Z,3.80
2018-02-19T17:35:17.482Z,3.60
2018-02-19T17:37:45.905Z,3.60
2018-02-19T17:40:14.682Z,3.50
2018-02-19T17:42:42.516Z,3.40
2018-02-19T17:45:10.134Z,3.40
2018-02-19T17:47:38.565Z,3.40
2018-02-19T17:50:06.897Z,3.30
2018-02-19T17:52:35.246Z,3.40
2018-02-19T17:55:03.038Z,3.40
2018-02-19T17:57:31.391Z,3.30
2018-02-19T17:59:59.114Z,3.20
2018-02-19T18:02:26.959Z,3.30
2018-02-19T18:04:55.906Z,3.40
2018-02-19T18:07:23.654Z,3.40
2018-02-19T18:09:51.429Z,3.30
2018-02-19T18:12:19.083Z,3.20
2018-02-19T18:14:48.008Z,3.30
2018-02-19T18:17:15.661Z,3.00
2018-02-19T18:19:43.279Z,3.00
2018-02-19T18:22:12.008Z,3.10
2018-02-19T18:24:40.162Z,3.20
2018-02-19T18:27:07.817Z,3.10
2018-02-19T18:29:35.683Z,3.10
2018-02-19T18:32:04.665Z,3.20
2018-02-19T18:34:32.327Z,2.90
2018-02-19T18:37:00.768Z,3.10
2018-02-19T18:39:29.196Z,3.10
2018-02-19T18:41:57.401Z,3.00
2018-02-19T18:44:25.838Z,3.10
2018-02-19T18:46:54.013Z,2.90
2018-02-19T18:49:23.007Z,3.10
2018-02-19T18:51:51.693Z,3.10
2018-02-19T18:54:19.348Z,3.00
2018-02-19T18:56:46.992Z,2.90
2018-02-19T18:59:14.652Z,3.10
2018-02-19T19:01:43.126Z,3.20
2018-02-19T19:04:10.812Z,2.90
2018-02-19T19:06:38.473Z,2.90
2018-02-19T19:09:18.204Z,2.80
2018-02-19T19:11:45.864Z,2.70
2018-02-19T19:14:14.253Z,2.50
2018-02-19T19:16:42.297Z,2.80
2018-02-19T19:19:09.960Z,2.70
2018-02-19T19:21:37.622Z,2.60
2018-02-19T19:24:06.547Z,2.90
2018-02-19T19:26:34.210Z,2.50
2018-02-19T19:29:01.829Z,2.80
2018-02-19T19:31:30.111Z,2.70
2018-02-19T19:33:58.069Z,2.30
2018-02-19T19:36:26.065Z,2.50
2018-02-19T19:38:54.615Z,2.50
2018-02-19T19:41:22.268Z,2.50
2018-02-19T19:43:50.526Z,2.50
2018-02-19T19:46:18.909Z,2.60
2018-02-19T19:48:48.757Z,2.20
2018-02-19T19:51:16.581Z,2.50
2018-02-19T19:53:45.274Z,2.20
2018-02-19T19:56:15.003Z,2.60
2018-02-19T19:58:43.297Z,2.30
2018-02-19T20:01:12.164Z,2.20
2018-02-19T20:03:40.238Z,2.30
2018-02-19T20:06:07.861Z,2.20
2018-02-19T20:08:36.812Z,1.90
2018-02-19T20:11:04.454Z,1.70
2018-02-19T20:13:32.073Z,1.70
2018-02-19T20:16:00.407Z,1.70
2018-02-19T20:18:29.354Z,1.50
2018-02-19T20:20:57.998Z,1.50
2018-02-19T20:23:25.658Z,1.40
2018-02-19T20:25:55.003Z,1.50
2018-02-19T20:28:22.659Z,1.60
2018-02-19T20:30:50.318Z,1.70
2018-02-19T20:33:18.707Z,1.70
2018-02-19T20:35:47.317Z,1.40
2018-02-19T20:38:14.985Z,1.70
2018-02-19T20:40:43.252Z,1.50
2018-02-19T20:43:12.231Z,1.50
2018-02-19T20:45:39.896Z,1.40
2018-02-19T20:48:09.597Z,1.40
2018-02-19T20:50:39.063Z,1.40
2018-02-19T20:53:07.017Z,1.50
2018-02-19T20:55:36.125Z,1.20
2018-02-19T20:58:09.857Z,1.00
2018-02-19T21:00:37.800Z,1.20
2018-02-19T21:03:07.087Z,1.00
2018-02-19T21:05:36.209Z,1.40
2018-02-19T21:08:03.862Z,1.00
2018-02-19T21:10:31.782Z,1.30
2018-02-19T21:12:59.451Z,1.00
2018-02-19T21:15:27.077Z,1.30
2018-02-19T21:17:54.734Z,1.10
2018-02-19T21:20:24.148Z,1.10
2018-02-19T21:22:51.801Z,0.90
2018-02-19T21:25:19.441Z,0.90
2018-02-19T21:27:47.115Z,1.00
2018-02-19T21:30:14.932Z,0.80
2018-02-19T21:32:42.553Z,0.80
2018-02-19T21:35:10.207Z,0.80
2018-02-19T21:37:37.821Z,0.70
2018-02-19T21:40:06.154Z,1.10
2018-02-19T21:42:33.778Z,0.60
2018-02-19T21:45:01.442Z,0.80
2018-02-19T21:47:29.103Z,0.80
2018-02-19T21:49:57.720Z,0.60
2018-02-19T21:52:25.376Z,0.60
2018-02-19T21:54:53.042Z,0.50
2018-02-19T21:57:20.695Z,0.70
2018-02-19T21:59:48.547Z,0.40
2018-02-19T22:02:16.214Z,0.50
2018-02-19T22:04:43.943Z,0.70
2018-02-19T22:07:11.602Z,0.50
2018-02-19T22:09:39.278Z,0.70
2018-02-19T22:12:07.645Z,0.50
2018-02-19T22:14:35.481Z,0.80
2018-02-19T22:17:03.138Z,0.60
2018-02-19T22:19:30.758Z,0.50
2018-02-19T22:21:58.658Z,0.80
2018-02-19T22:24:26.277Z,0.60
2018-02-19T22:26:53.938Z,0.70
2018-02-19T22:29:21.601Z,0.30
2018-02-19T22:31:49.253Z,0.40
2018-02-19T22:34:16.906Z,0.40
2018-02-19T22:36:45.196Z,0.10
2018-02-19T22:39:12.866Z,0.20
2018-02-19T22:41:40.481Z,0.20
2018-02-19T22:44:08.169Z,-0.10
2018-02-19T22:46:35.818Z,0.20
2018-02-19T22:49:03.717Z,-0.40
2018-02-19T22:51:31.602Z,0.00
2018-02-19T22:53:59.448Z,-0.30
2018-02-19T22:56:27.116Z,-0.30
2018-02-19T22:58:54.890Z,0.10
2018-02-19T23:01:22.703Z,0.00
2018-02-19T23:03:50.801Z,-0.10
2018-02-19T23:06:18.413Z,0.10
2018-02-19T23:08:46.110Z,0.10
2018-02-19T23:11:13.765Z,0.20
2018-02-19T23:13:41.380Z,0.30
2018-02-19T23:16:09.033Z,0.10
2018-02-19T23:18:36.689Z,0.10
2018-02-19T23:21:04.309Z,0.00
2018-02-19T23:23:31.965Z,0.10
2018-02-19T23:25:59.795Z,-0.10
2018-02-19T23:28:27.454Z,0.10
2018-02-19T23:30:55.853Z,0.00
2018-02-19T23:33:23.550Z,-0.10
2018-02-19T23:35:51.166Z,0.10
2018-02-19T23:38:18.773Z,0.20
2018-02-19T23:40:46.438Z,0.10
2018-02-19T23:43:14.053Z,-0.20
2018-02-19T23:45:41.669Z,0.00
2018-02-19T23:48:09.342Z,-0.20
2018-02-19T23:50:36.966Z,-0.30
2018-02-19T23:53:04.588Z,-0.10
2018-02-19T23:55:32.260Z,-0.40
2018-02-19T23:58:00.584Z,-0.40
